Aviation Digital Data Service (ADDS)

Output produced by METARs form (2029 UTC 21 September 2021)
found at http://www.aviationweather.gov/metar/data/
 
KHOU 211740Z 2118/2218 24006KT P6SM SCT030 
     FM212100 27009KT P6SM VCTS SCT040CB SCT080 
     FM220000 34010KT P6SM VCSH SCT050 BKN200 
     FM220400 01011KT P6SM FEW080 BKN100 
     FM220800 01013G23KT P6SM SCT100 
     FM221300 01012KT P6SM FEW250